Accueil
METAR-TAF:

METAR-TAF

Aéroports :

Aéroport de Quimper Bretagne, Pluguffan

Quimper, France

latitude: 47-58N, longitude: 004-10W, altitude: 92 m

Observation

Le bulletin a été fait il y a 34 minutes, à 11:00 UTC
Vent 4 kt de nord/nord-est, variant entre nord/nord-ouest et est
Température 13°C
Humidité 41%
Pression 1024 hPa
Visibilité 10 km ou plus
pas de nuages en-dessous de 1500 mètres et pas de cumulonimbus.

METAR: LFRQ 181100Z AUTO 03004KT 330V090 CAVOK 13/M00 Q1024 NOSIG

Heure: 13:34 (11:34 UTC)

Prévision

Le bulletin a été fait il y a 6 heures et 34 minutes, à 05:00 UTC
Prévision valable du 18 à 06 UTC au 19 à 06 UTC
Vent 5 kt de nord-est
Visibilité 10 km ou plus
pas de nuages en-dessous de 1500 mètres et pas de cumulonimbus.

TAF: LFRQ 180500Z 1806/1906 05005KT CAVOK

Observations et prévisions météorologiques de plus de 4000 aéroports (messages METAR et TAF).

Les stations disponibles sont représentées par des disques jaunes et rouges sur la carte.

Passer la souris dessus pour voir le nom de la station.

Cliquer dessus pour voir les observations et prévisions météorologiques.

Pour changer de carte: cliquez sur les boutons verts avec une croix noire pour zoomer, sur le bouton vert avec un tiret pour effectuer un zoom arrière, ou sur les flèches vertes pour les cartes adjacentes.


METAR-TAF: